Time;durP1;ratioP1;P1;durP2;ratioP2;P2;SDS_P1;SDS_P2;PMS_P1;PMS_P2;Temp;Humidity;BMP_temperature;BMP_pressure;BME280_temperature;BME280_humidity;BME280_pressure;Samples;Min_cycle;Max_cycle;Signal;HPM_P1;HPM_P2
2021/12/10 00:01:05;;;;;;;5.68;2.10;;;;;;;-0.07;100.00;94462.28;5051259;28;24458;-68
2021/12/10 00:03:36;;;;;;;6.55;2.10;;;;;;;-0.10;100.00;94457.31;5051719;28;24438;-70
2021/12/10 00:06:10;;;;;;;4.03;1.63;;;;;;;-0.06;100.00;94446.13;5050974;28;24446;-70
2021/12/10 00:08:39;;;;;;;9.25;2.28;;;;;;;-0.16;100.00;94445.69;5051388;28;24466;-69
2021/12/10 00:11:13;;;;;;;4.93;1.90;;;;;;;-0.39;100.00;94438.19;5051126;28;24520;-69
2021/12/10 00:13:43;;;;;;;10.73;2.22;;;;;;;-0.37;100.00;94441.47;5051585;28;24442;-69
2021/12/10 00:16:10;;;;;;;11.80;2.45;;;;;;;-0.48;100.00;94439.41;5050513;28;24451;-69
2021/12/10 00:18:40;;;;;;;7.38;1.83;;;;;;;-0.54;100.00;94430.28;5051114;28;24454;-69
2021/12/10 00:21:07;;;;;;;4.03;1.67;;;;;;;-0.45;100.00;94425.72;5050959;28;24439;-68
2021/12/10 00:23:34;;;;;;;10.68;2.30;;;;;;;-0.42;100.00;94423.88;5051073;28;24435;-69
2021/12/10 00:26:03;;;;;;;7.05;2.10;;;;;;;-0.46;100.00;94417.25;5050891;28;24442;-68
2021/12/10 00:28:34;;;;;;;7.10;2.27;;;;;;;-0.57;100.00;94417.69;5050750;28;24565;-69
2021/12/10 00:31:17;;;;;;;5.43;2.17;;;;;;;-0.60;100.00;94415.28;5051297;28;24431;-69
2021/12/10 00:33:50;;;;;;;10.95;2.30;;;;;;;-0.60;100.00;94407.66;5050764;28;24960;-69
2021/12/10 00:36:16;;;;;;;7.97;2.42;;;;;;;-0.57;100.00;94404.16;5050352;28;24458;-69
2021/12/10 00:38:43;;;;;;;5.95;2.20;;;;;;;-0.60;100.00;94399.19;5050696;28;24454;-69
2021/12/10 00:41:10;;;;;;;5.95;2.10;;;;;;;-0.68;100.00;94385.97;5050862;28;24489;-69
2021/12/10 00:43:38;;;;;;;4.32;1.90;;;;;;;-0.65;100.00;94384.16;5050884;28;24439;-68
2021/12/10 00:46:05;;;;;;;5.65;1.80;;;;;;;-0.62;100.00;94376.41;5050206;28;24489;-68
2021/12/10 00:48:32;;;;;;;6.60;2.05;;;;;;;-0.63;100.00;94372.19;5034775;28;24481;-69
2021/12/10 00:51:01;;;;;;;8.63;2.20;;;;;;;-0.63;100.00;94371.34;5050541;28;24438;-69
2021/12/10 00:53:27;;;;;;;4.82;2.00;;;;;;;-0.77;100.00;94371.94;5050364;28;24446;-68
2021/12/10 00:55:55;;;;;;;6.75;1.88;;;;;;;-0.69;100.00;94361.47;5050075;28;24443;-69
2021/12/10 00:58:23;;;;;;;8.10;2.13;;;;;;;-0.66;100.00;94359.63;5050458;28;24497;-69
2021/12/10 01:00:53;;;;;;;8.82;2.17;;;;;;;-0.77;100.00;94356.69;5050557;28;24442;-69
2021/12/10 01:03:24;;;;;;;6.82;1.98;;;;;;;-0.76;100.00;94346.44;5050405;28;24450;-68
2021/12/10 01:05:56;;;;;;;5.55;1.90;;;;;;;-0.87;100.00;94337.63;5050166;28;24439;-69
2021/12/10 01:08:22;;;;;;;6.68;2.17;;;;;;;-0.88;100.00;94344.41;5049887;28;24431;-68
2021/12/10 01:10:53;;;;;;;5.05;1.90;;;;;;;-0.88;100.00;94339.34;5050190;28;24439;-69
2021/12/10 01:13:26;;;;;;;7.38;2.00;;;;;;;-0.82;100.00;94335.69;5033209;28;24439;-68
2021/12/10 01:16:17;;;;;;;10.23;1.80;;;;;;;-0.94;100.00;94326.06;5035098;28;24458;-69
2021/12/10 01:24:34;;;;;;;5.10;1.77;;;;;;;-0.86;100.00;94309.59;5049425;28;24431;-69
2021/12/10 01:27:10;;;;;;;6.68;2.00;;;;;;;-0.92;100.00;94307.31;5049883;28;24449;-69
2021/12/10 01:29:40;;;;;;;6.15;2.00;;;;;;;-0.84;100.00;94297.66;5049186;28;24464;-69
2021/12/10 01:32:11;;;;;;;4.95;1.80;;;;;;;-0.81;100.00;94286.53;5049860;28;24446;-69
2021/12/10 01:34:38;;;;;;;4.53;1.92;;;;;;;-0.79;100.00;94285.56;5049891;28;24497;-69
2021/12/10 01:37:06;;;;;;;4.05;1.70;;;;;;;-0.75;100.00;94276.91;5049881;28;24431;-70
2021/12/10 01:39:36;;;;;;;4.38;1.60;;;;;;;-0.66;100.00;94268.09;5049733;28;24450;-69
2021/12/10 01:42:15;;;;;;;4.47;1.67;;;;;;;-0.53;100.00;94268.38;5050279;28;24454;-69
2021/12/10 01:44:45;;;;;;;7.85;2.70;;;;;;;-0.60;100.00;94262.72;5049988;28;24542;-69
2021/12/10 01:47:17;;;;;;;7.70;2.38;;;;;;;-0.62;100.00;94256.88;5049510;28;24858;-69
2021/12/10 01:49:44;;;;;;;5.93;2.25;;;;;;;-0.63;100.00;94247.63;5049879;28;24501;-69
2021/12/10 01:52:13;;;;;;;3.45;1.60;;;;;;;-0.60;100.00;94247.47;5049879;28;24441;-69
2021/12/10 01:54:44;;;;;;;5.13;1.80;;;;;;;-0.59;100.00;94243.22;5049588;28;24489;-70
2021/12/10 01:57:13;;;;;;;4.10;2.00;;;;;;;-0.58;100.00;94248.22;5049436;28;24839;-69
2021/12/10 01:59:41;;;;;;;5.20;1.83;;;;;;;-0.66;100.00;94241.84;5049672;28;24852;-69
2021/12/10 02:02:11;;;;;;;5.43;1.95;;;;;;;-0.66;100.00;94250.28;5050161;28;24815;-69
2021/12/10 02:04:41;;;;;;;4.20;1.85;;;;;;;-0.65;100.00;94236.69;5051804;28;24836;-69
2021/12/10 02:07:11;;;;;;;5.13;1.50;;;;;;;-0.60;100.00;94233.94;5053481;28;24493;-69
2021/12/10 02:09:38;;;;;;;4.53;1.80;;;;;;;-0.68;100.00;94229.19;5053532;28;24434;-69
2021/12/10 02:12:06;;;;;;;7.72;1.90;;;;;;;-0.61;100.00;94222.94;5053878;28;24438;-69
2021/12/10 02:14:33;;;;;;;4.77;2.10;;;;;;;-0.63;100.00;94213.72;5053640;28;25086;-69
2021/12/10 02:17:00;;;;;;;6.50;2.00;;;;;;;-0.73;100.00;94201.41;5052851;28;24801;-68
2021/12/10 02:19:28;;;;;;;4.72;1.63;;;;;;;-0.70;100.00;94187.75;5053344;28;24504;-69
2021/12/10 02:21:56;;;;;;;3.55;1.33;;;;;;;-0.64;100.00;94179.00;5053376;28;24790;-69
2021/12/10 02:24:23;;;;;;;2.88;1.33;;;;;;;-0.87;100.00;94182.59;5053319;28;24438;-69
2021/12/10 02:26:54;;;;;;;3.38;1.50;;;;;;;-0.92;100.00;94177.72;5053193;28;24451;-69
2021/12/10 02:29:24;;;;;;;6.18;2.35;;;;;;;-0.84;100.00;94173.09;5052995;28;24987;-69
2021/12/10 02:31:51;;;;;;;6.10;2.00;;;;;;;-0.86;100.00;94164.72;5053002;28;24442;-69
2021/12/10 02:34:18;;;;;;;4.88;1.95;;;;;;;-0.85;100.00;94153.69;5053304;28;24446;-70
2021/12/10 02:36:45;;;;;;;4.72;1.88;;;;;;;-0.91;100.00;94153.94;5052353;28;24439;-69
2021/12/10 02:39:15;;;;;;;7.55;1.90;;;;;;;-0.92;100.00;94149.75;5052762;28;24852;-68
2021/12/10 02:41:42;;;;;;;9.18;1.92;;;;;;;-0.97;100.00;94141.50;5045671;28;24789;-69
2021/12/10 02:44:12;;;;;;;5.78;1.80;;;;;;;-0.88;100.00;94153.00;5053243;28;24846;-68
2021/12/10 02:46:39;;;;;;;3.50;1.50;;;;;;;-1.04;100.00;94146.03;5052552;28;24989;-69
2021/12/10 02:49:07;;;;;;;3.28;1.67;;;;;;;-0.99;100.00;94149.19;5053067;28;24430;-69
2021/12/10 02:51:35;;;;;;;3.97;1.65;;;;;;;-0.98;100.00;94147.47;5052426;28;24820;-69
2021/12/10 02:54:03;;;;;;;10.52;1.80;;;;;;;-0.95;100.00;94142.25;5053061;28;24439;-69
2021/12/10 02:56:31;;;;;;;6.10;1.90;;;;;;;-1.01;100.00;94134.91;5052390;28;24999;-70
2021/12/10 02:58:59;;;;;;;3.80;1.60;;;;;;;-0.92;100.00;94133.69;5052499;28;24505;-69
2021/12/10 03:01:29;;;;;;;4.88;1.85;;;;;;;-1.14;100.00;94133.81;5052105;28;24442;-69
2021/12/10 03:03:56;;;;;;;5.45;1.98;;;;;;;-1.04;100.00;94125.72;5051898;28;24435;-70
2021/12/10 03:06:23;;;;;;;7.78;1.98;;;;;;;-1.01;100.00;94117.09;5052006;28;24534;-69
2021/12/10 03:08:51;;;;;;;5.53;2.15;;;;;;;-1.19;100.00;94115.38;5052744;28;24439;-69
2021/12/10 03:11:22;;;;;;;4.43;2.15;;;;;;;-1.18;100.00;94109.44;5052633;28;24439;-70
2021/12/10 03:13:50;;;;;;;5.53;2.40;;;;;;;-1.26;100.00;94091.94;5052322;28;25019;-69
2021/12/10 03:16:18;;;;;;;6.75;2.58;;;;;;;-1.29;100.00;94090.41;5052183;28;24501;-69
2021/12/10 03:18:44;;;;;;;5.20;2.38;;;;;;;-1.26;100.00;94069.94;5052706;28;24991;-69
2021/12/10 03:21:12;;;;;;;4.80;2.50;;;;;;;-1.19;100.00;94073.00;5052267;28;24435;-69
2021/12/10 03:23:42;;;;;;;5.63;2.88;;;;;;;-1.23;100.00;94062.16;5052419;28;24438;-69
2021/12/10 03:26:10;;;;;;;14.00;3.30;;;;;;;-1.19;100.00;94056.97;5051884;28;24987;-69
2021/12/10 03:28:37;;;;;;;6.82;3.60;;;;;;;-1.35;100.00;94047.47;5052226;28;24796;-69
2021/12/10 03:31:06;;;;;;;6.60;3.47;;;;;;;-1.32;100.00;94038.91;5051495;28;24976;-70
2021/12/10 03:33:32;;;;;;;5.93;3.50;;;;;;;-1.32;100.00;94033.84;5052138;28;24458;-70
2021/12/10 03:35:59;;;;;;;6.55;3.50;;;;;;;-1.27;100.00;94026.81;5051870;28;24444;-69
2021/12/10 03:38:26;;;;;;;7.18;3.63;;;;;;;-1.16;100.00;94023.78;5051769;28;25000;-71
2021/12/10 03:40:54;;;;;;;9.48;4.18;;;;;;;-1.16;100.00;94014.47;5051765;28;24431;-69
2021/12/10 03:43:24;;;;;;;8.57;3.67;;;;;;;-1.23;100.00;94013.91;5051622;28;24431;-70
2021/12/10 03:45:54;;;;;;;6.25;4.15;;;;;;;-1.46;100.00;94014.13;5051749;28;24442;-69
2021/12/10 03:48:24;;;;;;;6.97;4.20;;;;;;;-1.49;100.00;94011.72;5051551;28;24984;-69
2021/12/10 03:50:52;;;;;;;6.75;4.15;;;;;;;-1.57;100.00;94009.50;5051843;28;24438;-69
2021/12/10 03:53:19;;;;;;;6.50;4.22;;;;;;;-1.48;100.00;94009.13;5051294;28;24493;-69
2021/12/10 03:55:46;;;;;;;7.25;4.38;;;;;;;-1.56;100.00;94002.72;5051353;28;24439;-69
2021/12/10 03:58:13;;;;;;;7.45;4.40;;;;;;;-1.47;100.00;94009.94;5051582;28;24443;-69
2021/12/10 04:00:44;;;;;;;7.40;4.70;;;;;;;-1.42;100.00;94002.94;5051525;28;24451;-69
2021/12/10 04:03:12;;;;;;;9.13;5.60;;;;;;;-1.34;100.00;94000.03;5051546;28;24442;-70
2021/12/10 04:05:40;;;;;;;7.60;4.80;;;;;;;-1.45;100.00;93998.00;5051405;28;24443;-69
2021/12/10 04:08:07;;;;;;;5.85;4.45;;;;;;;-1.36;100.00;93996.78;5051338;28;25006;-69
2021/12/10 04:10:34;;;;;;;9.15;4.65;;;;;;;-1.41;100.00;93994.41;5051068;28;24435;-69
2021/12/10 04:13:01;;;;;;;8.23;4.80;;;;;;;-1.36;100.00;93994.22;5034887;28;24510;-70
2021/12/10 04:15:28;;;;;;;6.15;4.55;;;;;;;-1.28;100.00;93987.09;5051103;28;24443;-70
2021/12/10 04:17:57;;;;;;;6.53;4.63;;;;;;;-1.27;100.00;93986.19;5051452;28;24438;-70
2021/12/10 04:20:29;;;;;;;6.63;4.88;;;;;;;-1.37;100.00;93979.88;5050920;28;24458;-69
2021/12/10 04:22:58;;;;;;;8.27;5.20;;;;;;;-1.31;100.00;93982.97;5051163;28;24438;-70
2021/12/10 04:25:25;;;;;;;10.30;5.20;;;;;;;-1.33;100.00;93976.31;5050721;28;24493;-69
2021/12/10 04:27:54;;;;;;;8.05;5.05;;;;;;;-1.36;100.00;93972.19;5050569;28;24972;-69
2021/12/10 04:30:21;;;;;;;7.53;5.30;;;;;;;-1.40;100.00;93973.22;5051013;28;24553;-69
2021/12/10 04:32:48;;;;;;;8.05;5.57;;;;;;;-1.34;100.00;93972.94;5050855;28;24438;-69
2021/12/10 04:35:16;;;;;;;9.02;5.55;;;;;;;-1.34;100.00;93967.84;5050375;28;24813;-69
2021/12/10 04:37:42;;;;;;;9.55;5.50;;;;;;;-1.32;100.00;93966.09;5050823;28;24439;-70
2021/12/10 04:40:13;;;;;;;7.00;5.30;;;;;;;-1.43;100.00;93950.50;5050121;28;24504;-69
2021/12/10 04:42:39;;;;;;;6.75;5.32;;;;;;;-1.34;100.00;93946.72;5047958;28;24443;-70
2021/12/10 04:45:08;;;;;;;6.97;5.63;;;;;;;-1.34;100.00;93937.38;5050401;28;24462;-70
2021/12/10 04:47:35;;;;;;;9.18;6.05;;;;;;;-1.36;100.00;93931.56;5045401;28;24435;-70
2021/12/10 04:50:03;;;;;;;8.90;6.28;;;;;;;-1.34;100.00;93926.41;5050634;28;24427;-70
2021/12/10 04:52:30;;;;;;;7.63;5.80;;;;;;;-1.35;100.00;93923.03;5048133;28;25037;-69
2021/12/10 04:54:56;;;;;;;12.98;6.63;;;;;;;-1.54;100.00;93923.06;5050368;28;24802;-70
2021/12/10 04:57:24;;;;;;;13.95;11.15;;;;;;;-1.61;100.00;93931.84;5039212;28;24438;-70
2021/12/10 04:59:51;;;;;;;15.75;10.77;;;;;;;-1.58;100.00;93923.28;5050264;28;24447;-69
2021/12/10 05:02:18;;;;;;;10.25;8.13;;;;;;;-1.50;100.00;93932.19;5050878;28;24431;-70
2021/12/10 05:04:46;;;;;;;13.45;7.00;;;;;;;-1.43;100.00;93927.66;5050074;28;24805;-70
2021/12/10 05:07:14;;;;;;;13.07;7.20;;;;;;;-1.64;100.00;93923.56;5049780;28;24500;-69
2021/12/10 05:09:41;;;;;;;10.02;6.75;;;;;;;-1.69;100.00;93923.75;5050219;28;25011;-69
2021/12/10 05:12:08;;;;;;;8.10;6.53;;;;;;;-1.67;100.00;93932.13;5050056;28;25018;-70
2021/12/10 05:14:37;;;;;;;9.18;6.43;;;;;;;-1.68;100.00;93920.31;5050331;28;24443;-69
2021/12/10 05:17:07;;;;;;;8.95;6.82;;;;;;;-1.54;100.00;93912.09;5049711;28;24430;-70
2021/12/10 05:19:36;;;;;;;10.52;6.82;;;;;;;-1.67;100.00;93911.00;5049759;28;24451;-69
2021/12/10 05:22:05;;;;;;;9.73;6.68;;;;;;;-1.63;100.00;93902.34;5049263;28;24432;-69
2021/12/10 05:24:31;;;;;;;10.25;6.55;;;;;;;-1.63;100.00;93895.56;5047883;28;24434;-69
2021/12/10 05:26:59;;;;;;;10.43;6.82;;;;;;;-1.59;100.00;93894.53;5049133;28;24446;-70
2021/12/10 05:29:26;;;;;;;9.57;6.57;;;;;;;-1.56;100.00;93885.94;5050349;28;24431;-69
2021/12/10 05:31:56;;;;;;;10.00;6.93;;;;;;;-1.53;100.00;93890.88;5049494;28;24428;-69
2021/12/10 05:34:23;;;;;;;8.93;6.43;;;;;;;-1.52;100.00;93882.38;5050051;28;24825;-69
2021/12/10 05:36:50;;;;;;;5.95;5.18;;;;;;;-1.52;100.00;93879.81;5049567;28;24816;-69
2021/12/10 05:39:21;;;;;;;8.90;6.63;;;;;;;-1.54;100.00;93877.38;5051646;28;24458;-70
2021/12/10 05:41:48;;;;;;;7.07;6.20;;;;;;;-1.51;100.00;93866.25;5054607;28;24435;-70
2021/12/10 05:44:14;;;;;;;13.90;6.68;;;;;;;-1.45;100.00;93865.97;5053576;28;24435;-69
2021/12/10 05:46:41;;;;;;;10.70;6.65;;;;;;;-1.41;100.00;93861.56;5053520;28;24439;-72
2021/12/10 05:49:09;;;;;;;9.80;6.07;;;;;;;-1.44;100.00;93865.09;5054194;28;24808;-71
2021/12/10 05:51:36;;;;;;;9.20;6.22;;;;;;;-1.49;100.00;93859.38;5053830;28;24438;-71
2021/12/10 05:54:03;;;;;;;9.30;6.28;;;;;;;-1.51;100.00;93861.19;5049865;28;24797;-71
2021/12/10 05:56:30;;;;;;;8.82;6.80;;;;;;;-1.56;100.00;93855.47;5053521;28;24435;-70
2021/12/10 05:58:57;;;;;;;9.63;6.27;;;;;;;-1.54;100.00;93851.97;5053513;28;24492;-70
2021/12/10 06:01:24;;;;;;;8.40;6.10;;;;;;;-1.55;100.00;93847.00;5053756;28;24439;-70
2021/12/10 06:03:53;;;;;;;8.23;6.53;;;;;;;-1.69;100.00;93850.16;5053793;28;25007;-70
2021/12/10 06:06:23;;;;;;;12.00;6.83;;;;;;;-1.72;100.00;93847.75;5052961;28;24980;-70
2021/12/10 06:08:50;;;;;;;9.52;7.13;;;;;;;-1.69;100.00;93834.13;5053765;28;24438;-70
2021/12/10 06:11:17;;;;;;;9.30;6.90;;;;;;;-1.66;100.00;93821.28;5053648;28;24847;-70
2021/12/10 06:13:45;;;;;;;6.30;5.60;;;;;;;-1.61;100.00;93812.56;5053448;28;25075;-71
2021/12/10 06:16:12;;;;;;;9.98;5.97;;;;;;;-1.46;100.00;93805.94;5052610;28;24442;-70
2021/12/10 06:18:39;;;;;;;16.35;6.20;;;;;;;-1.58;100.00;93792.09;5053693;28;24489;-70
2021/12/10 06:21:06;;;;;;;9.00;5.73;;;;;;;-1.71;100.00;93781.72;5053194;28;24451;-70
2021/12/10 06:23:34;;;;;;;8.20;5.32;;;;;;;-1.69;100.00;93776.56;5053478;28;24522;-70
2021/12/10 06:26:03;;;;;;;7.03;5.25;;;;;;;-1.79;100.00;93777.88;5052935;28;24442;-70
2021/12/10 06:28:30;;;;;;;7.65;5.25;;;;;;;-1.71;100.00;93761.41;5053050;28;24442;-69
2021/12/10 06:30:56;;;;;;;8.43;4.72;;;;;;;-1.62;100.00;93764.41;5053301;28;24438;-69
2021/12/10 06:33:27;;;;;;;8.38;4.65;;;;;;;-1.36;100.00;93761.44;5053336;28;24435;-69
2021/12/10 06:35:55;;;;;;;6.78;3.80;;;;;;;-1.53;100.00;93754.63;5052861;28;24555;-69
2021/12/10 06:38:23;;;;;;;5.77;3.17;;;;;;;-1.26;100.00;93744.00;5053054;28;24525;-70
2021/12/10 06:40:52;;;;;;;8.52;3.20;;;;;;;-1.45;100.00;93746.63;5052985;28;24451;-70
2021/12/10 06:43:20;;;;;;;4.50;2.72;;;;;;;-1.59;100.00;93737.16;5052466;28;24442;-70
2021/12/10 06:45:49;;;;;;;7.60;3.10;;;;;;;-1.56;100.00;93731.94;5048034;28;24431;-73
2021/12/10 06:48:17;;;;;;;6.50;3.20;;;;;;;-1.63;100.00;93737.38;5047466;28;24439;-71
2021/12/10 06:50:46;;;;;;;7.13;3.30;;;;;;;-1.68;100.00;93741.84;5051230;28;24432;-70
2021/12/10 06:53:13;;;;;;;10.77;4.38;;;;;;;-1.84;100.00;93727.34;5052158;28;24526;-71
2021/12/10 06:55:40;;;;;;;12.77;7.10;;;;;;;-2.01;100.00;93729.84;5051889;28;24443;-70
2021/12/10 06:58:09;;;;;;;10.70;6.18;;;;;;;-2.10;100.00;93730.31;5052245;28;24422;-71
2021/12/10 07:00:41;;;;;;;6.90;4.80;;;;;;;-2.15;100.00;93729.69;5052724;28;24648;-71
2021/12/10 07:03:09;;;;;;;8.85;5.53;;;;;;;-2.35;100.00;93723.00;5050847;28;24983;-71
2021/12/10 07:05:36;;;;;;;8.80;5.63;;;;;;;-2.27;100.00;93728.53;5051396;28;24533;-71
2021/12/10 07:08:03;;;;;;;10.20;6.30;;;;;;;-2.33;100.00;93721.22;5052491;28;24435;-72
2021/12/10 07:10:29;;;;;;;8.25;6.07;;;;;;;-2.21;100.00;93721.47;5053026;28;24847;-71
2021/12/10 07:12:56;;;;;;;12.77;7.13;;;;;;;-2.12;100.00;93720.22;5052800;28;24435;-72
2021/12/10 07:15:25;;;;;;;8.23;6.85;;;;;;;-2.02;100.00;93718.06;5051932;28;24443;-71
2021/12/10 07:17:52;;;;;;;12.52;7.80;;;;;;;-2.00;100.00;93706.97;5052404;28;24529;-71
2021/12/10 07:20:22;;;;;;;11.02;7.45;;;;;;;-1.95;100.00;93706.75;5052291;28;24450;-70
2021/12/10 07:22:49;;;;;;;12.13;8.17;;;;;;;-2.08;100.00;93714.09;5051193;28;24983;-71
2021/12/10 07:25:15;;;;;;;7.28;5.88;;;;;;;-2.06;100.00;93714.88;5051879;28;24967;-70
2021/12/10 07:27:42;;;;;;;9.82;7.38;;;;;;;-1.98;100.00;93699.28;5052036;28;24431;-70
2021/12/10 07:30:09;;;;;;;12.20;8.60;;;;;;;-1.91;100.00;93703.16;5052327;28;24481;-71
2021/12/10 07:32:37;;;;;;;13.23;8.85;;;;;;;-1.89;100.00;93698.00;5051928;28;24423;-70
2021/12/10 07:35:05;;;;;;;13.10;7.82;;;;;;;-1.78;100.00;93696.63;5051498;28;24499;-71
2021/12/10 07:37:32;;;;;;;8.45;6.78;;;;;;;-1.91;100.00;93704.88;5051769;28;24489;-72
2021/12/10 07:39:58;;;;;;;9.73;7.35;;;;;;;-2.08;100.00;93709.03;5051774;28;24505;-71
2021/12/10 07:42:25;;;;;;;11.25;6.53;;;;;;;-2.07;100.00;93707.34;5051982;28;24832;-72
2021/12/10 07:44:53;;;;;;;9.13;6.57;;;;;;;-1.96;100.00;93705.13;5051807;28;24474;-70
2021/12/10 07:47:21;;;;;;;11.40;7.00;;;;;;;-1.88;100.00;93709.81;5050685;28;24442;-70
2021/12/10 07:49:49;;;;;;;14.18;7.18;;;;;;;-1.86;100.00;93702.94;5051996;28;24481;-71
2021/12/10 07:52:22;;;;;;;9.03;5.73;;;;;;;-1.90;100.00;93699.72;5049735;28;24801;-70
2021/12/10 07:54:49;;;;;;;8.15;4.60;;;;;;;-2.01;100.00;93705.31;5051495;28;24530;-70
2021/12/10 07:57:17;;;;;;;6.43;3.95;;;;;;;-2.07;100.00;93705.63;5049887;28;24465;-71
2021/12/10 07:59:45;;;;;;;7.53;4.13;;;;;;;-2.00;100.00;93706.16;5051414;28;24994;-70
2021/12/10 08:02:13;;;;;;;6.20;4.38;;;;;;;-2.03;100.00;93703.75;5050571;28;24450;-70
2021/12/10 08:04:40;;;;;;;9.30;4.82;;;;;;;-2.08;100.00;93708.22;5051276;28;24526;-70
2021/12/10 08:07:08;;;;;;;7.32;4.82;;;;;;;-2.08;100.00;93710.75;5051429;28;24446;-70
2021/12/10 08:09:34;;;;;;;5.82;4.53;;;;;;;-1.96;100.00;93702.56;5051339;28;24436;-71
2021/12/10 08:12:01;;;;;;;9.02;5.03;;;;;;;-2.01;100.00;93700.22;5051392;28;24431;-70
2021/12/10 08:14:28;;;;;;;7.35;4.85;;;;;;;-1.85;100.00;93695.28;5050946;28;24454;-70
2021/12/10 08:16:54;;;;;;;6.55;4.90;;;;;;;-1.91;100.00;93687.94;5050510;28;24438;-69
2021/12/10 08:19:21;;;;;;;8.18;5.20;;;;;;;-1.84;100.00;93691.03;5051283;28;24440;-70
2021/12/10 08:21:47;;;;;;;8.90;5.07;;;;;;;-1.81;100.00;93689.16;5051170;28;24856;-70
2021/12/10 08:24:15;;;;;;;7.18;4.88;;;;;;;-1.81;100.00;93686.63;5051214;28;24509;-70
2021/12/10 08:26:42;;;;;;;6.53;4.10;;;;;;;-1.88;100.00;93697.13;5050733;28;25000;-70
2021/12/10 08:29:11;;;;;;;8.75;4.88;;;;;;;-1.88;100.00;93697.13;5050640;28;24489;-70
2021/12/10 08:31:38;;;;;;;8.32;5.07;;;;;;;-1.95;100.00;93694.06;5051073;28;24443;-70
2021/12/10 08:34:06;;;;;;;10.38;4.80;;;;;;;-1.91;100.00;93687.94;5050642;28;24458;-70
2021/12/10 08:36:33;;;;;;;8.20;4.90;;;;;;;-1.85;100.00;93694.47;5050629;28;24791;-70
2021/12/10 08:39:00;;;;;;;7.80;5.10;;;;;;;-1.75;100.00;93688.03;5050625;28;24534;-71
2021/12/10 08:41:33;;;;;;;9.02;5.43;;;;;;;-1.69;100.00;93686.91;5050931;28;24447;-71
2021/12/10 08:44:00;;;;;;;6.85;4.60;;;;;;;-1.64;100.00;93693.41;5050856;28;24501;-71
2021/12/10 08:46:29;;;;;;;11.88;4.20;;;;;;;-1.52;100.00;93690.28;5049550;28;24831;-71
2021/12/10 08:48:58;;;;;;;5.88;3.92;;;;;;;-1.44;100.00;93679.75;5050520;28;24489;-71
2021/12/10 08:51:30;;;;;;;6.93;4.05;;;;;;;-1.31;100.00;93667.25;5050002;28;24434;-70
2021/12/10 08:53:57;;;;;;;7.28;4.28;;;;;;;-1.14;100.00;93663.84;5050461;28;24435;-71
2021/12/10 08:56:24;;;;;;;8.35;4.45;;;;;;;-1.27;100.00;93668.72;5049941;28;24443;-71
2021/12/10 08:58:52;;;;;;;7.88;4.40;;;;;;;-1.19;100.00;93673.41;5050592;28;24431;-71
2021/12/10 09:01:20;;;;;;;9.88;4.63;;;;;;;-1.17;100.00;93664.00;5050117;28;24513;-71
2021/12/10 09:03:49;;;;;;;7.15;4.63;;;;;;;-1.10;100.00;93668.69;5050306;28;24833;-71
2021/12/10 09:06:17;;;;;;;11.77;5.00;;;;;;;-1.05;100.00;93671.00;5050093;28;24439;-71
2021/12/10 09:08:44;;;;;;;11.65;5.13;;;;;;;-1.11;100.00;93671.28;5050114;28;24439;-72
2021/12/10 09:11:12;;;;;;;11.20;5.00;;;;;;;-1.11;100.00;93676.38;5050124;28;24849;-72
2021/12/10 09:13:39;;;;;;;13.07;8.40;;;;;;;-1.24;100.00;93663.50;5047376;28;24456;-72
2021/12/10 09:16:18;;;;;;;13.17;8.57;;;;;;;-1.19;100.00;93660.72;5048681;22;24823;-70
2021/12/10 09:18:44;;;;;;;24.13;11.77;;;;;;;-1.32;100.00;93656.25;5061374;28;24436;-71
2021/12/10 09:21:11;;;;;;;11.98;8.55;;;;;;;-1.35;100.00;93658.94;5040804;28;24474;-70
2021/12/10 09:23:38;;;;;;;9.15;5.80;;;;;;;-1.32;100.00;93652.91;5050268;28;24458;-70
2021/12/10 09:26:09;;;;;;;7.10;5.78;;;;;;;-1.33;100.00;93648.75;5033465;28;25004;-70
2021/12/10 09:28:38;;;;;;;8.15;5.43;;;;;;;-1.35;100.00;93636.09;5050248;28;24442;-70
2021/12/10 09:31:07;;;;;;;6.85;5.18;;;;;;;-1.33;100.00;93628.41;5049933;28;24434;-69
2021/12/10 09:33:34;;;;;;;7.28;5.07;;;;;;;-1.24;100.00;93628.75;5049875;28;24439;-70
2021/12/10 09:36:01;;;;;;;4.95;4.35;;;;;;;-1.09;100.00;93627.13;5049993;28;24466;-70
2021/12/10 09:38:28;;;;;;;5.65;4.10;;;;;;;-1.00;100.00;93630.94;5049984;28;24442;-70
2021/12/10 09:40:58;;;;;;;7.13;4.50;;;;;;;-0.92;100.00;93623.72;5049933;28;24451;-70
2021/12/10 09:43:25;;;;;;;7.47;4.53;;;;;;;-0.86;100.00;93628.47;5050210;28;24443;-71
2021/12/10 09:45:52;;;;;;;5.97;4.20;;;;;;;-0.76;100.00;93628.81;5049198;28;24443;-70
2021/12/10 09:48:22;;;;;;;4.70;4.03;;;;;;;-0.72;100.00;93607.41;5033665;28;24518;-71
2021/12/10 09:50:54;;;;;;;6.47;3.88;;;;;;;-0.73;100.00;93605.78;5050303;28;24470;-71
2021/12/10 09:53:20;;;;;;;6.35;3.58;;;;;;;-0.63;100.00;93606.94;5050384;28;24443;-73
2021/12/10 09:55:49;;;;;;;7.88;4.32;;;;;;;-0.62;100.00;93600.13;5049632;28;24999;-72
2021/12/10 09:58:17;;;;;;;6.60;3.80;;;;;;;-0.57;100.00;93595.59;5049700;28;24439;-73
2021/12/10 10:00:48;;;;;;;6.50;3.90;;;;;;;-0.50;100.00;93591.81;5049871;28;24447;-73
2021/12/10 10:03:17;;;;;;;5.18;3.40;;;;;;;-0.51;100.00;93587.66;5050138;28;24439;-73
2021/12/10 10:05:46;;;;;;;5.10;4.20;;;;;;;-0.52;100.00;93589.38;5049839;28;24438;-73
2021/12/10 10:08:17;;;;;;;6.88;3.85;;;;;;;-0.47;100.00;93581.50;5049957;28;24529;-74
2021/12/10 10:10:50;;;;;;;5.47;3.50;;;;;;;-0.47;100.00;93585.75;5049636;28;24451;-73
2021/12/10 10:13:19;;;;;;;5.00;3.03;;;;;;;-0.44;100.00;93572.88;5049567;28;25064;-70
2021/12/10 10:15:48;;;;;;;5.25;3.38;;;;;;;-0.54;100.00;93567.47;5048640;28;24446;-72
2021/12/10 10:18:15;;;;;;;5.32;3.55;;;;;;;-0.53;100.00;93566.56;5049884;28;24438;-70
2021/12/10 10:20:49;;;;;;;4.35;3.10;;;;;;;-0.44;100.00;93565.25;5049782;28;24455;-70
2021/12/10 10:23:16;;;;;;;4.20;2.80;;;;;;;-0.45;100.00;93551.69;5049571;28;24847;-70
2021/12/10 10:25:46;;;;;;;5.03;2.88;;;;;;;-0.37;100.00;93557.19;5051728;28;24446;-70
2021/12/10 10:28:14;;;;;;;4.73;3.00;;;;;;;-0.36;100.00;93550.38;5054079;28;24452;-70
2021/12/10 10:30:46;;;;;;;3.90;2.63;;;;;;;-0.41;100.00;93545.53;5053912;28;24446;-70
2021/12/10 10:33:13;;;;;;;5.13;2.72;;;;;;;-0.31;100.00;93546.66;5053663;28;24440;-70
2021/12/10 10:35:44;;;;;;;5.80;2.70;;;;;;;-0.31;100.00;93539.03;5053490;28;24875;-70
2021/12/10 10:38:13;;;;;;;6.95;2.85;;;;;;;-0.33;100.00;93533.22;5053595;28;24411;-70
2021/12/10 10:40:43;;;;;;;7.93;3.47;;;;;;;-0.30;100.00;93522.88;5052901;28;25033;-72
2021/12/10 10:43:11;;;;;;;3.28;2.80;;;;;;;-0.33;100.00;93519.69;5053583;28;24442;-71
2021/12/10 10:45:42;;;;;;;4.68;3.08;;;;;;;-0.27;100.00;93519.31;5052758;28;24454;-70
2021/12/10 10:48:11;;;;;;;4.40;2.80;;;;;;;-0.23;100.00;93519.97;5045656;28;24458;-70
2021/12/10 10:50:40;;;;;;;5.28;2.70;;;;;;;-0.23;100.00;93520.78;5053116;28;24586;-71
2021/12/10 10:53:10;;;;;;;9.43;2.55;;;;;;;-0.16;100.00;93511.09;5053162;28;24527;-71
2021/12/10 10:55:40;;;;;;;4.60;2.28;;;;;;;-0.22;100.00;93509.72;5052781;28;24435;-70
2021/12/10 10:58:10;;;;;;;3.83;2.15;;;;;;;-0.22;100.00;93506.34;5053133;28;24442;-70
2021/12/10 11:00:46;;;;;;;5.00;2.20;;;;;;;-0.29;100.00;93498.25;5052733;28;24443;-70
2021/12/10 11:03:15;;;;;;;4.22;2.72;;;;;;;-0.29;100.00;93498.25;5050033;28;24650;-70
2021/12/10 11:05:48;;;;;;;3.63;2.55;;;;;;;-0.29;100.00;93499.06;5052701;28;24859;-70
2021/12/10 11:08:26;;;;;;;6.70;3.75;;;;;;;-0.31;100.00;93497.50;5052813;28;24442;-70
2021/12/10 11:10:58;;;;;;;7.07;4.40;;;;;;;-0.36;100.00;93499.50;5052545;28;24443;-70
2021/12/10 11:13:26;;;;;;;7.97;4.18;;;;;;;-0.38;100.00;93499.59;5052785;28;25247;-70
2021/12/10 11:15:58;;;;;;;5.17;2.53;;;;;;;-0.30;100.00;93496.59;5051740;28;24477;-70
2021/12/10 11:18:25;;;;;;;6.88;3.95;;;;;;;-0.45;100.00;93498.28;5052794;28;24439;-70
2021/12/10 11:20:51;;;;;;;6.88;4.35;;;;;;;-0.41;100.00;93499.75;5052348;28;24458;-70
2021/12/10 11:23:23;;;;;;;5.00;3.85;;;;;;;-0.58;100.00;93504.97;5052441;28;24797;-70
2021/12/10 11:25:53;;;;;;;6.82;4.65;;;;;;;-0.58;100.00;93497.34;5052292;28;24445;-70
2021/12/10 11:28:26;;;;;;;6.35;4.43;;;;;;;-0.61;100.00;93500.88;5052160;28;25066;-70
2021/12/10 11:30:58;;;;;;;4.88;2.83;;;;;;;-0.54;100.00;93497.09;5052384;28;24442;-70
2021/12/10 11:33:26;;;;;;;5.30;3.17;;;;;;;-0.62;100.00;93495.91;5052204;28;24987;-70
2021/12/10 11:35:55;;;;;;;11.57;5.35;;;;;;;-0.60;100.00;93487.25;5051050;28;24428;-70